sensor_id;sensor_type;location;lat;lon;timestamp;pressure;altitude;pressure_sealevel;temperature;humidity
73516;BME280;61763;51.416;5.442;2022-07-29T00:00:09;101527.97;;;17.82;52.12
73516;BME280;61763;51.416;5.442;2022-07-29T00:02:35;101534.50;;;17.80;51.69
73516;BME280;61763;51.416;5.442;2022-07-29T00:05:02;101530.59;;;17.84;51.92
73516;BME280;61763;51.416;5.442;2022-07-29T00:07:28;101527.31;;;17.79;52.02
73516;BME280;61763;51.416;5.442;2022-07-29T00:09:53;101533.53;;;17.81;51.68
73516;BME280;61763;51.416;5.442;2022-07-29T00:12:20;101540.19;;;17.77;52.04
73516;BME280;61763;51.416;5.442;2022-07-29T00:14:46;101542.16;;;17.75;51.98
73516;BME280;61763;51.416;5.442;2022-07-29T00:17:11;101533.31;;;17.71;52.29
73516;BME280;61763;51.416;5.442;2022-07-29T00:19:36;101540.63;;;17.71;52.13
73516;BME280;61763;51.416;5.442;2022-07-29T00:22:02;101546.97;;;17.71;51.86
73516;BME280;61763;51.416;5.442;2022-07-29T00:24:27;101557.09;;;17.69;52.43
73516;BME280;61763;51.416;5.442;2022-07-29T00:26:53;101574.56;;;17.66;53.27
73516;BME280;61763;51.416;5.442;2022-07-29T00:29:19;101586.31;;;17.54;54.38
73516;BME280;61763;51.416;5.442;2022-07-29T00:31:45;101605.69;;;17.37;57.59
73516;BME280;61763;51.416;5.442;2022-07-29T00:34:10;101626.88;;;17.19;59.60
73516;BME280;61763;51.416;5.442;2022-07-29T00:36:57;101632.66;;;16.99;62.62
73516;BME280;61763;51.416;5.442;2022-07-29T00:39:22;101618.25;;;16.69;65.46
73516;BME280;61763;51.416;5.442;2022-07-29T00:41:48;101608.63;;;16.34;67.10
73516;BME280;61763;51.416;5.442;2022-07-29T00:44:14;101606.66;;;16.22;69.64
73516;BME280;61763;51.416;5.442;2022-07-29T00:46:39;101604.75;;;15.93;72.18
73516;BME280;61763;51.416;5.442;2022-07-29T00:49:05;101599.44;;;15.76;72.55
73516;BME280;61763;51.416;5.442;2022-07-29T00:51:34;101590.28;;;15.47;76.63
73516;BME280;61763;51.416;5.442;2022-07-29T00:53:59;101577.69;;;15.30;77.46
73516;BME280;61763;51.416;5.442;2022-07-29T00:56:24;101563.94;;;15.17;79.01
73516;BME280;61763;51.416;5.442;2022-07-29T00:58:50;101544.28;;;15.12;76.78
73516;BME280;61763;51.416;5.442;2022-07-29T01:01:16;101533.69;;;14.91;78.51
73516;BME280;61763;51.416;5.442;2022-07-29T01:03:41;101519.16;;;14.76;79.58
73516;BME280;61763;51.416;5.442;2022-07-29T01:06:06;101496.94;;;14.84;79.52
73516;BME280;61763;51.416;5.442;2022-07-29T01:08:32;101491.03;;;14.77;77.30
73516;BME280;61763;51.416;5.442;2022-07-29T01:10:59;101479.53;;;14.72;78.69
73516;BME280;61763;51.416;5.442;2022-07-29T01:13:27;101470.59;;;14.70;80.23
73516;BME280;61763;51.416;5.442;2022-07-29T01:15:59;101461.72;;;14.50;80.27
73516;BME280;61763;51.416;5.442;2022-07-29T01:18:45;101446.47;;;14.32;83.16
73516;BME280;61763;51.416;5.442;2022-07-29T01:26:57;101431.72;;;14.04;86.52
73516;BME280;61763;51.416;5.442;2022-07-29T01:29:32;101450.81;;;14.02;86.71
73516;BME280;61763;51.416;5.442;2022-07-29T01:32:06;101465.53;;;14.14;84.94
73516;BME280;61763;51.416;5.442;2022-07-29T01:37:09;101495.47;;;14.13;87.43
73516;BME280;61763;51.416;5.442;2022-07-29T01:39:38;101484.44;;;14.16;87.58
73516;BME280;61763;51.416;5.442;2022-07-29T01:42:27;101471.88;;;14.15;85.13
73516;BME280;61763;51.416;5.442;2022-07-29T01:45:12;101465.53;;;14.14;87.03
73516;BME280;61763;51.416;5.442;2022-07-29T01:50:40;101456.38;;;14.33;85.59
73516;BME280;61763;51.416;5.442;2022-07-29T01:53:11;101444.91;;;14.60;83.40
73516;BME280;61763;51.416;5.442;2022-07-29T01:55:40;101448.75;;;14.55;83.66
73516;BME280;61763;51.416;5.442;2022-07-29T01:58:08;101439.09;;;14.50;83.23
73516;BME280;61763;51.416;5.442;2022-07-29T02:00:34;101450.13;;;14.31;85.74
73516;BME280;61763;51.416;5.442;2022-07-29T02:03:05;101448.03;;;14.20;86.52
73516;BME280;61763;51.416;5.442;2022-07-29T02:05:34;101453.81;;;14.14;88.76
73516;BME280;61763;51.416;5.442;2022-07-29T02:08:01;101454.94;;;14.10;90.03
73516;BME280;61763;51.416;5.442;2022-07-29T02:10:29;101447.84;;;14.07;90.47
73516;BME280;61763;51.416;5.442;2022-07-29T02:12:58;101451.63;;;14.05;91.21
73516;BME280;61763;51.416;5.442;2022-07-29T02:15:27;101449.00;;;14.03;91.33
73516;BME280;61763;51.416;5.442;2022-07-29T02:18:00;101457.28;;;14.00;91.35
73516;BME280;61763;51.416;5.442;2022-07-29T02:20:27;101452.91;;;13.97;91.75
73516;BME280;61763;51.416;5.442;2022-07-29T02:22:55;101450.28;;;13.96;91.84
73516;BME280;61763;51.416;5.442;2022-07-29T02:25:21;101454.94;;;14.10;92.55
73516;BME280;61763;51.416;5.442;2022-07-29T02:27:50;101456.78;;;14.09;91.72
73516;BME280;61763;51.416;5.442;2022-07-29T02:30:17;101450.63;;;14.06;91.65
73516;BME280;61763;51.416;5.442;2022-07-29T02:32:44;101449.94;;;14.02;91.63
73516;BME280;61763;51.416;5.442;2022-07-29T02:35:13;101453.63;;;14.01;91.80
73516;BME280;61763;51.416;5.442;2022-07-29T02:37:40;101450.22;;;13.97;92.00
73516;BME280;61763;51.416;5.442;2022-07-29T02:40:09;101447.59;;;13.96;92.20
73516;BME280;61763;51.416;5.442;2022-07-29T02:42:37;101450.38;;;13.94;92.24
73516;BME280;61763;51.416;5.442;2022-07-29T02:45:05;101457.53;;;13.95;92.14
73516;BME280;61763;51.416;5.442;2022-07-29T02:47:34;101450.28;;;13.96;91.91
73516;BME280;61763;51.416;5.442;2022-07-29T02:50:06;101451.00;;;13.99;91.91
73516;BME280;61763;51.416;5.442;2022-07-29T02:52:37;101448.28;;;13.99;91.57
73516;BME280;61763;51.416;5.442;2022-07-29T02:55:19;101454.47;;;14.01;91.94
73516;BME280;61763;51.416;5.442;2022-07-29T02:57:53;101451.00;;;13.99;91.91
73516;BME280;61763;51.416;5.442;2022-07-29T03:00:20;101450.22;;;13.97;92.19
73516;BME280;61763;51.416;5.442;2022-07-29T03:02:50;101446.69;;;13.95;92.27
73516;BME280;61763;51.416;5.442;2022-07-29T03:05:19;101432.59;;;13.89;92.29
73516;BME280;61763;51.416;5.442;2022-07-29T03:07:57;101438.63;;;13.94;92.29
73516;BME280;61763;51.416;5.442;2022-07-29T03:10:24;101444.06;;;13.94;92.45
73516;BME280;61763;51.416;5.442;2022-07-29T03:12:50;101440.38;;;13.95;92.55
73516;BME280;61763;51.416;5.442;2022-07-29T03:15:16;101440.31;;;13.96;92.29
73516;BME280;61763;51.416;5.442;2022-07-29T03:17:43;101441.16;;;13.97;92.24
73516;BME280;61763;51.416;5.442;2022-07-29T03:20:09;101447.50;;;13.97;92.21
73516;BME280;61763;51.416;5.442;2022-07-29T03:22:39;101451.84;;;14.00;92.43
73516;BME280;61763;51.416;5.442;2022-07-29T03:25:09;101470.84;;;14.00;91.98
73516;BME280;61763;51.416;5.442;2022-07-29T03:27:35;101471.22;;;14.10;90.80
73516;BME280;61763;51.416;5.442;2022-07-29T03:30:00;101472.53;;;14.02;90.50
73516;BME280;61763;51.416;5.442;2022-07-29T03:32:26;101460.00;;;14.00;90.98
73516;BME280;61763;51.416;5.442;2022-07-29T03:34:51;101448.28;;;13.99;91.55
73516;BME280;61763;51.416;5.442;2022-07-29T03:37:16;101446.50;;;13.98;90.25
73516;BME280;61763;51.416;5.442;2022-07-29T03:39:43;101434.63;;;14.01;89.22
73516;BME280;61763;51.416;5.442;2022-07-29T03:42:12;101428.25;;;14.02;88.73
73516;BME280;61763;51.416;5.442;2022-07-29T03:44:40;101429.28;;;13.99;88.00
73516;BME280;61763;51.416;5.442;2022-07-29T03:47:08;101430.22;;;13.98;86.81
73516;BME280;61763;51.416;5.442;2022-07-29T03:49:36;101444.13;;;13.92;86.41
73516;BME280;61763;51.416;5.442;2022-07-29T03:52:03;101446.41;;;13.84;86.24
73516;BME280;61763;51.416;5.442;2022-07-29T03:54:29;101447.63;;;13.78;86.69
73516;BME280;61763;51.416;5.442;2022-07-29T03:56:59;101456.22;;;13.69;87.98
73516;BME280;61763;51.416;5.442;2022-07-29T03:59:26;101451.53;;;13.73;87.74
73516;BME280;61763;51.416;5.442;2022-07-29T04:01:53;101445.78;;;13.79;87.78
73516;BME280;61763;51.416;5.442;2022-07-29T04:04:21;101433.16;;;13.78;88.23
73516;BME280;61763;51.416;5.442;2022-07-29T04:06:46;101428.72;;;13.77;88.63
73516;BME280;61763;51.416;5.442;2022-07-29T04:09:12;101416.88;;;13.78;89.41
73516;BME280;61763;51.416;5.442;2022-07-29T04:11:39;101422.66;;;13.72;89.95
73516;BME280;61763;51.416;5.442;2022-07-29T04:14:05;101435.44;;;13.70;87.99
73516;BME280;61763;51.416;5.442;2022-07-29T04:16:31;101441.09;;;13.65;89.14
73516;BME280;61763;51.416;5.442;2022-07-29T04:18:56;101447.81;;;13.58;90.57
73516;BME280;61763;51.416;5.442;2022-07-29T04:21:22;101449.63;;;13.57;91.34
73516;BME280;61763;51.416;5.442;2022-07-29T04:23:47;101449.72;;;13.56;91.21
73516;BME280;61763;51.416;5.442;2022-07-29T04:26:16;101439.94;;;13.53;90.58
73516;BME280;61763;51.416;5.442;2022-07-29T04:28:41;101448.94;;;13.54;90.84
73516;BME280;61763;51.416;5.442;2022-07-29T04:31:08;101455.22;;;13.54;90.94
73516;BME280;61763;51.416;5.442;2022-07-29T04:33:34;101442.31;;;13.59;90.29
73516;BME280;61763;51.416;5.442;2022-07-29T04:35:59;101450.63;;;13.56;89.32
73516;BME280;61763;51.416;5.442;2022-07-29T04:38:24;101455.22;;;13.54;89.14
73516;BME280;61763;51.416;5.442;2022-07-29T04:40:50;101469.25;;;13.62;86.35
73516;BME280;61763;51.416;5.442;2022-07-29T04:43:15;101469.00;;;13.67;86.44
73516;BME280;61763;51.416;5.442;2022-07-29T04:45:41;101476.03;;;13.71;85.98
73516;BME280;61763;51.416;5.442;2022-07-29T04:48:06;101484.50;;;13.65;87.44
73516;BME280;61763;51.416;5.442;2022-07-29T04:50:32;101494.63;;;13.61;88.06
73516;BME280;61763;51.416;5.442;2022-07-29T04:52:57;101491.75;;;13.64;88.77
73516;BME280;61763;51.416;5.442;2022-07-29T04:55:23;101494.38;;;13.66;88.80
73516;BME280;61763;51.416;5.442;2022-07-29T04:57:48;101493.41;;;13.67;89.08
73516;BME280;61763;51.416;5.442;2022-07-29T05:00:14;101497.97;;;13.66;88.64
73516;BME280;61763;51.416;5.442;2022-07-29T05:02:39;101493.41;;;13.67;88.29
73516;BME280;61763;51.416;5.442;2022-07-29T05:05:05;101505.88;;;13.71;88.62
73516;BME280;61763;51.416;5.442;2022-07-29T05:07:30;101502.03;;;13.75;86.69
73516;BME280;61763;51.416;5.442;2022-07-29T05:09:56;101508.34;;;13.76;88.23
73516;BME280;61763;51.416;5.442;2022-07-29T05:12:23;101512.00;;;13.75;87.67
73516;BME280;61763;51.416;5.442;2022-07-29T05:14:48;101502.22;;;13.72;88.01
73516;BME280;61763;51.416;5.442;2022-07-29T05:17:14;101504.19;;;13.69;87.33
73516;BME280;61763;51.416;5.442;2022-07-29T05:19:39;101504.28;;;13.67;86.16
73516;BME280;61763;51.416;5.442;2022-07-29T05:22:04;101510.66;;;13.66;87.59
73516;BME280;61763;51.416;5.442;2022-07-29T05:24:30;101493.41;;;13.67;88.74
73516;BME280;61763;51.416;5.442;2022-07-29T05:26:55;101487.84;;;13.70;89.07
73516;BME280;61763;51.416;5.442;2022-07-29T05:29:21;101481.47;;;13.71;89.21
73516;BME280;61763;51.416;5.442;2022-07-29T05:31:46;101496.63;;;13.75;89.13
73516;BME280;61763;51.416;5.442;2022-07-29T05:34:12;101499.94;;;13.80;88.60
73516;BME280;61763;51.416;5.442;2022-07-29T05:36:37;101501.47;;;13.86;89.51
73516;BME280;61763;51.416;5.442;2022-07-29T05:39:02;101491.31;;;13.90;88.83
73516;BME280;61763;51.416;5.442;2022-07-29T05:41:31;101494.75;;;13.93;87.68
73516;BME280;61763;51.416;5.442;2022-07-29T05:43:57;101490.91;;;13.97;87.20
73516;BME280;61763;51.416;5.442;2022-07-29T05:46:23;101494.66;;;13.95;87.11
73516;BME280;61763;51.416;5.442;2022-07-29T05:48:49;101495.28;;;14.00;87.30
73516;BME280;61763;51.416;5.442;2022-07-29T05:51:14;101493.63;;;13.97;87.60
73516;BME280;61763;51.416;5.442;2022-07-29T05:53:39;101500.94;;;13.95;87.94
73516;BME280;61763;51.416;5.442;2022-07-29T05:56:05;101509.81;;;13.99;86.31
73516;BME280;61763;51.416;5.442;2022-07-29T05:58:31;101504.91;;;14.06;85.88
73516;BME280;61763;51.416;5.442;2022-07-29T06:00:56;101511.69;;;14.14;85.54
73516;BME280;61763;51.416;5.442;2022-07-29T06:03:25;101501.28;;;14.23;85.48
73516;BME280;61763;51.416;5.442;2022-07-29T06:05:50;101497.03;;;14.34;84.68
73516;BME280;61763;51.416;5.442;2022-07-29T06:08:15;101498.69;;;14.53;85.38
73516;BME280;61763;51.416;5.442;2022-07-29T06:10:41;101497.75;;;14.70;83.65
73516;BME280;61763;51.416;5.442;2022-07-29T06:13:06;101489.59;;;14.86;82.88
73516;BME280;61763;51.416;5.442;2022-07-29T06:15:32;101497.56;;;15.05;81.69
73516;BME280;61763;51.416;5.442;2022-07-29T06:17:57;101497.78;;;15.16;81.57
73516;BME280;61763;51.416;5.442;2022-07-29T06:20:22;101501.31;;;15.18;80.64
73516;BME280;61763;51.416;5.442;2022-07-29T06:22:48;101506.91;;;15.31;79.04
73516;BME280;61763;51.416;5.442;2022-07-29T06:25:13;101503.75;;;15.23;78.35
73516;BME280;61763;51.416;5.442;2022-07-29T06:27:38;101504.31;;;15.14;79.35
73516;BME280;61763;51.416;5.442;2022-07-29T06:30:04;101504.88;;;15.19;80.01
73516;BME280;61763;51.416;5.442;2022-07-29T06:32:32;101502.91;;;15.06;80.30
73516;BME280;61763;51.416;5.442;2022-07-29T06:34:58;101504.31;;;15.14;79.73
73516;BME280;61763;51.416;5.442;2022-07-29T06:37:23;101508.06;;;15.11;80.63
73516;BME280;61763;51.416;5.442;2022-07-29T06:39:48;101501.78;;;15.11;80.99
73516;BME280;61763;51.416;5.442;2022-07-29T06:42:34;101501.16;;;15.05;80.61
73516;BME280;61763;51.416;5.442;2022-07-29T06:44:59;101506.69;;;15.04;79.68
73516;BME280;61763;51.416;5.442;2022-07-29T06:47:25;101502.19;;;15.03;80.43
73516;BME280;61763;51.416;5.442;2022-07-29T06:49:50;101508.94;;;14.96;81.49
73516;BME280;61763;51.416;5.442;2022-07-29T06:52:15;101492.06;;;14.91;80.67
73516;BME280;61763;51.416;5.442;2022-07-29T06:54:41;101511.06;;;14.91;80.23
73516;BME280;61763;51.416;5.442;2022-07-29T06:57:13;101506.69;;;14.88;80.37
73516;BME280;61763;51.416;5.442;2022-07-29T06:59:38;101519.41;;;14.87;81.02
73516;BME280;61763;51.416;5.442;2022-07-29T07:02:03;101525.03;;;15.00;81.61
73516;BME280;61763;51.416;5.442;2022-07-29T07:04:29;101531.91;;;15.06;82.02
73516;BME280;61763;51.416;5.442;2022-07-29T07:06:54;101533.25;;;14.99;83.07
73516;BME280;61763;51.416;5.442;2022-07-29T07:09:20;101536.94;;;15.14;81.49
73516;BME280;61763;51.416;5.442;2022-07-29T07:11:46;101535.41;;;15.24;81.52
73516;BME280;61763;51.416;5.442;2022-07-29T07:14:11;101545.47;;;15.38;80.93
73516;BME280;61763;51.416;5.442;2022-07-29T07:16:36;101538.44;;;15.80;79.00
73516;BME280;61763;51.416;5.442;2022-07-29T07:19:02;101536.13;;;16.17;77.56
73516;BME280;61763;51.416;5.442;2022-07-29T07:21:28;101539.53;;;16.64;74.16
73516;BME280;61763;51.416;5.442;2022-07-29T07:23:53;101533.66;;;16.85;73.27
73516;BME280;61763;51.416;5.442;2022-07-29T07:26:18;101536.84;;;16.91;73.51
73516;BME280;61763;51.416;5.442;2022-07-29T07:28:44;101540.38;;;17.21;73.02
73516;BME280;61763;51.416;5.442;2022-07-29T07:31:10;101540.56;;;17.45;70.92
73516;BME280;61763;51.416;5.442;2022-07-29T07:33:35;101542.00;;;17.50;69.61
73516;BME280;61763;51.416;5.442;2022-07-29T07:36:00;101534.38;;;17.56;69.97
73516;BME280;61763;51.416;5.442;2022-07-29T07:38:26;101540.94;;;17.66;70.56
73516;BME280;61763;51.416;5.442;2022-07-29T07:40:51;101542.69;;;17.67;69.13
73516;BME280;61763;51.416;5.442;2022-07-29T07:43:17;101541.28;;;17.74;69.56
73516;BME280;61763;51.416;5.442;2022-07-29T07:45:42;101549.91;;;17.81;69.46
73516;BME280;61763;51.416;5.442;2022-07-29T07:48:08;101550.19;;;17.91;70.83
73516;BME280;61763;51.416;5.442;2022-07-29T07:50:35;101557.06;;;17.96;70.43
73516;BME280;61763;51.416;5.442;2022-07-29T07:53:01;101557.38;;;18.04;67.34
73516;BME280;61763;51.416;5.442;2022-07-29T07:55:27;101552.59;;;18.08;67.22
73516;BME280;61763;51.416;5.442;2022-07-29T07:57:53;101550.28;;;18.15;67.20
73516;BME280;61763;51.416;5.442;2022-07-29T08:00:20;101548.00;;;18.21;67.99
73516;BME280;61763;51.416;5.442;2022-07-29T08:02:46;101555.97;;;18.37;68.08
73516;BME280;61763;51.416;5.442;2022-07-29T08:05:13;101558.78;;;18.49;66.55
73516;BME280;61763;51.416;5.442;2022-07-29T08:07:43;101554.63;;;18.56;65.51
73516;BME280;61763;51.416;5.442;2022-07-29T08:10:09;101554.59;;;18.82;66.43
73516;BME280;61763;51.416;5.442;2022-07-29T08:12:34;101559.72;;;18.99;64.84
73516;BME280;61763;51.416;5.442;2022-07-29T08:15:00;101550.34;;;19.15;62.49
73516;BME280;61763;51.416;5.442;2022-07-29T08:17:25;101550.63;;;19.23;61.34
73516;BME280;61763;51.416;5.442;2022-07-29T08:19:51;101545.25;;;19.46;64.05
73516;BME280;61763;51.416;5.442;2022-07-29T08:22:17;101539.72;;;19.70;62.04
73516;BME280;61763;51.416;5.442;2022-07-29T08:24:42;101550.50;;;19.84;62.19
73516;BME280;61763;51.416;5.442;2022-07-29T08:27:08;101541.59;;;20.05;59.58
73516;BME280;61763;51.416;5.442;2022-07-29T08:29:34;101541.63;;;20.16;58.68
73516;BME280;61763;51.416;5.442;2022-07-29T08:31:59;101544.00;;;20.21;58.46
73516;BME280;61763;51.416;5.442;2022-07-29T08:34:25;101552.72;;;20.37;59.03
73516;BME280;61763;51.416;5.442;2022-07-29T08:36:51;101533.16;;;20.53;58.53
73516;BME280;61763;51.416;5.442;2022-07-29T08:39:16;101543.63;;;20.82;57.99
73516;BME280;61763;51.416;5.442;2022-07-29T08:41:42;101549.22;;;20.92;57.46
73516;BME280;61763;51.416;5.442;2022-07-29T08:44:08;101557.56;;;21.02;57.09
73516;BME280;61763;51.416;5.442;2022-07-29T08:46:37;101556.13;;;21.18;54.89
73516;BME280;61763;51.416;5.442;2022-07-29T08:49:04;101552.47;;;21.41;54.83
73516;BME280;61763;51.416;5.442;2022-07-29T08:51:30;101548.69;;;21.53;55.80
73516;BME280;61763;51.416;5.442;2022-07-29T08:53:57;101558.75;;;21.64;52.44
73516;BME280;61763;51.416;5.442;2022-07-29T08:56:23;101552.19;;;21.76;55.81
73516;BME280;61763;51.416;5.442;2022-07-29T08:58:49;101545.44;;;22.01;52.93
73516;BME280;61763;51.416;5.442;2022-07-29T09:01:17;101558.44;;;22.30;51.53
73516;BME280;61763;51.416;5.442;2022-07-29T09:03:45;101563.97;;;22.51;53.69
73516;BME280;61763;51.416;5.442;2022-07-29T09:06:15;101560.56;;;22.38;51.39
73516;BME280;61763;51.416;5.442;2022-07-29T09:08:42;101563.00;;;22.10;54.49
73516;BME280;61763;51.416;5.442;2022-07-29T09:11:08;101562.72;;;22.34;51.49
73516;BME280;61763;51.416;5.442;2022-07-29T09:13:34;101561.72;;;22.45;51.01
73516;BME280;61763;51.416;5.442;2022-07-29T09:16:00;101559.88;;;22.46;54.18
73516;BME280;61763;51.416;5.442;2022-07-29T09:18:41;101558.75;;;22.58;52.12
73516;BME280;61763;51.416;5.442;2022-07-29T09:21:08;101551.78;;;22.95;50.88
73516;BME280;61763;51.416;5.442;2022-07-29T09:26:28;101553.03;;;23.51;49.15
73516;BME280;61763;51.416;5.442;2022-07-29T09:28:54;101556.69;;;23.71;50.32
73516;BME280;61763;51.416;5.442;2022-07-29T09:31:32;101563.75;;;24.03;48.60
73516;BME280;61763;51.416;5.442;2022-07-29T09:33:58;101563.50;;;24.06;46.51
73516;BME280;61763;51.416;5.442;2022-07-29T09:36:25;101559.56;;;23.79;48.47
73516;BME280;61763;51.416;5.442;2022-07-29T09:39:00;101562.13;;;24.20;43.95
73516;BME280;61763;51.416;5.442;2022-07-29T09:41:29;101552.41;;;24.16;43.57
73516;BME280;61763;51.416;5.442;2022-07-29T09:44:08;101553.63;;;24.41;43.87
73516;BME280;61763;51.416;5.442;2022-07-29T09:46:34;101555.22;;;24.43;43.51
73516;BME280;61763;51.416;5.442;2022-07-29T09:49:11;101549.63;;;24.73;44.25
73516;BME280;61763;51.416;5.442;2022-07-29T09:51:40;101555.59;;;24.68;42.96
73516;BME280;61763;51.416;5.442;2022-07-29T09:54:26;101546.38;;;24.77;42.73
73516;BME280;61763;51.416;5.442;2022-07-29T09:56:52;101543.41;;;24.71;44.13
73516;BME280;61763;51.416;5.442;2022-07-29T09:59:18;101548.63;;;24.54;42.27
73516;BME280;61763;51.416;5.442;2022-07-29T10:01:45;101539.50;;;24.63;44.30
73516;BME280;61763;51.416;5.442;2022-07-29T10:04:11;101545.03;;;24.63;42.75
73516;BME280;61763;51.416;5.442;2022-07-29T10:06:58;101543.56;;;25.15;41.97
73516;BME280;61763;51.416;5.442;2022-07-29T10:09:24;101544.03;;;25.10;41.47
73516;BME280;61763;51.416;5.442;2022-07-29T10:12:11;101541.53;;;25.35;40.57
73516;BME280;61763;51.416;5.442;2022-07-29T10:14:41;101540.78;;;25.43;40.11
73516;BME280;61763;51.416;5.442;2022-07-29T10:17:07;101539.72;;;25.62;40.92
73516;BME280;61763;51.416;5.442;2022-07-29T10:19:34;101546.41;;;25.77;40.84
73516;BME280;61763;51.416;5.442;2022-07-29T10:22:02;101544.19;;;25.81;40.40
73516;BME280;61763;51.416;5.442;2022-07-29T10:24:29;101545.91;;;26.00;39.42
73516;BME280;61763;51.416;5.442;2022-07-29T10:26:59;101540.22;;;26.01;40.42
73516;BME280;61763;51.416;5.442;2022-07-29T10:29:27;101543.75;;;26.12;40.94
73516;BME280;61763;51.416;5.442;2022-07-29T10:35:17;101537.63;;;26.00;40.69
73516;BME280;61763;51.416;5.442;2022-07-29T10:43:31;101528.19;;;26.71;37.80
73516;BME280;61763;51.416;5.442;2022-07-29T10:46:02;101532.72;;;26.72;38.44
73516;BME280;61763;51.416;5.442;2022-07-29T10:48:28;101531.53;;;26.83;36.67
73516;BME280;61763;51.416;5.442;2022-07-29T10:51:02;101528.84;;;26.65;37.81
73516;BME280;61763;51.416;5.442;2022-07-29T10:53:50;101537.97;;;26.57;37.29
73516;BME280;61763;51.416;5.442;2022-07-29T10:56:30;101530.56;;;26.05;37.41
73516;BME280;61763;51.416;5.442;2022-07-29T10:59:30;101530.41;;;26.33;37.15
73516;BME280;61763;51.416;5.442;2022-07-29T11:01:56;101531.03;;;26.53;37.41
73516;BME280;61763;51.416;5.442;2022-07-29T11:07:09;101525.69;;;27.03;38.07
73516;BME280;61763;51.416;5.442;2022-07-29T11:09:34;101537.03;;;26.75;39.88
73516;BME280;61763;51.416;5.442;2022-07-29T11:12:00;101536.03;;;26.84;39.18
73516;BME280;61763;51.416;5.442;2022-07-29T11:14:57;101518.06;;;26.97;37.66
73516;BME280;61763;51.416;5.442;2022-07-29T11:17:24;101520.16;;;27.03;38.79
73516;BME280;61763;51.416;5.442;2022-07-29T11:19:49;101520.03;;;27.21;36.92
73516;BME280;61763;51.416;5.442;2022-07-29T11:22:34;101521.22;;;27.10;38.88
73516;BME280;61763;51.416;5.442;2022-07-29T11:25:16;101524.63;;;26.96;38.07
73516;BME280;61763;51.416;5.442;2022-07-29T11:27:44;101517.72;;;27.00;40.01
73516;BME280;61763;51.416;5.442;2022-07-29T11:30:10;101519.00;;;27.30;37.53
73516;BME280;61763;51.416;5.442;2022-07-29T11:32:42;101515.19;;;27.31;36.48
73516;BME280;61763;51.416;5.442;2022-07-29T11:35:21;101518.00;;;27.48;35.32
73516;BME280;61763;51.416;5.442;2022-07-29T11:46:47;101520.81;;;26.54;39.16
73516;BME280;61763;51.416;5.442;2022-07-29T11:51:53;101517.50;;;26.85;36.92
73516;BME280;61763;51.416;5.442;2022-07-29T11:54:25;101519.00;;;27.30;36.01
73516;BME280;61763;51.416;5.442;2022-07-29T11:56:52;101522.00;;;27.61;36.02
73516;BME280;61763;51.416;5.442;2022-07-29T11:59:19;101520.78;;;27.97;35.74
73516;BME280;61763;51.416;5.442;2022-07-29T12:01:58;101512.94;;;28.09;35.12
73516;BME280;61763;51.416;5.442;2022-07-29T12:04:24;101515.03;;;27.90;34.54
73516;BME280;61763;51.416;5.442;2022-07-29T12:06:50;101517.66;;;27.51;35.10
73516;BME280;61763;51.416;5.442;2022-07-29T12:09:17;101517.47;;;28.02;36.97
73516;BME280;61763;51.416;5.442;2022-07-29T12:11:44;101516.34;;;28.36;34.40
73516;BME280;61763;51.416;5.442;2022-07-29T12:14:27;101515.59;;;28.58;33.49
73516;BME280;61763;51.416;5.442;2022-07-29T12:16:53;101512.22;;;28.23;33.22
73516;BME280;61763;51.416;5.442;2022-07-29T12:19:18;101517.66;;;28.00;32.91
73516;BME280;61763;51.416;5.442;2022-07-29T12:24:14;101522.41;;;26.99;36.80
73516;BME280;61763;51.416;5.442;2022-07-29T12:26:55;101521.78;;;27.30;36.29
73516;BME280;61763;51.416;5.442;2022-07-29T12:29:21;101520.59;;;27.57;35.54
73516;BME280;61763;51.416;5.442;2022-07-29T12:31:51;101512.13;;;27.75;35.17
73516;BME280;61763;51.416;5.442;2022-07-29T12:34:19;101503.41;;;28.20;33.71
73516;BME280;61763;51.416;5.442;2022-07-29T12:36:45;101514.81;;;28.25;34.87
73516;BME280;61763;51.416;5.442;2022-07-29T12:39:11;101512.00;;;28.41;32.86
73516;BME280;61763;51.416;5.442;2022-07-29T12:41:37;101512.78;;;28.66;32.89
73516;BME280;61763;51.416;5.442;2022-07-29T12:44:04;101515.97;;;28.95;32.66
73516;BME280;61763;51.416;5.442;2022-07-29T12:46:29;101513.16;;;28.63;33.73
73516;BME280;61763;51.416;5.442;2022-07-29T12:48:55;101509.97;;;28.75;32.57
73516;BME280;61763;51.416;5.442;2022-07-29T12:51:38;101518.69;;;28.72;33.04
73516;BME280;61763;51.416;5.442;2022-07-29T12:54:11;101511.81;;;28.91;34.05
73516;BME280;61763;51.416;5.442;2022-07-29T12:56:39;101511.13;;;28.89;32.56
73516;BME280;61763;51.416;5.442;2022-07-29T12:59:18;101514.78;;;28.89;32.97
73516;BME280;61763;51.416;5.442;2022-07-29T13:01:45;101513.03;;;29.43;30.78
73516;BME280;61763;51.416;5.442;2022-07-29T13:04:24;101511.00;;;29.36;31.92
73516;BME280;61763;51.416;5.442;2022-07-29T13:09:37;101507.88;;;28.37;32.36
73516;BME280;61763;51.416;5.442;2022-07-29T13:12:08;101498.59;;;28.61;33.06
73516;BME280;61763;51.416;5.442;2022-07-29T13:14:46;101502.88;;;29.04;31.46
73516;BME280;61763;51.416;5.442;2022-07-29T13:19:50;101508.00;;;29.15;30.95
73516;BME280;61763;51.416;5.442;2022-07-29T13:22:23;101501.53;;;28.68;31.26
73516;BME280;61763;51.416;5.442;2022-07-29T13:27:26;101513.81;;;29.05;32.05
73516;BME280;61763;51.416;5.442;2022-07-29T13:29:53;101514.88;;;28.00;33.55
73516;BME280;61763;51.416;5.442;2022-07-29T13:32:22;101505.94;;;28.38;36.37
73516;BME280;61763;51.416;5.442;2022-07-29T13:34:48;101511.28;;;28.87;31.18
73516;BME280;61763;51.416;5.442;2022-07-29T13:37:14;101502.34;;;28.21;33.55
73516;BME280;61763;51.416;5.442;2022-07-29T13:39:40;101508.63;;;27.90;32.06
73516;BME280;61763;51.416;5.442;2022-07-29T13:42:06;101507.44;;;27.84;33.36